Prosser Lakeview, California
Current Conditions -  °F | °C
As of 2:35 AM on Saturday 22 Nov 2014 (Local Time) from KTRK Reporting Station
Drizzle Drizzle  
Wind Chill: 36°   Ceiling: 2400
Heat Index: 43°   Visibility: 10mi
Dew Point: 37°   Wind: 14mph
Humidity: 81%   Direction: 170°S
Pressure: 30.07"   Gusts: 22mph
Location:  39.3569°N, 120.175°W
Report Text: KTRK 221035Z AUTO 17012G19KT 10SM -DZ OVC024 06/03 A3007 RMK AO2
Loading
Personal Weather Stations






























Interactive Weather Map New forecast layout! Learn more

10-Day Weather Forecast

Advertisements
Track Severe Weather on mobile